createdAt,value
2017-06-14T00:07:19.988Z,19.70
2017-06-14T00:09:50.007Z,19.50
2017-06-14T00:12:20.911Z,19.40
2017-06-14T00:14:53.062Z,19.30
2017-06-14T00:19:55.484Z,19.30
2017-06-14T00:22:23.596Z,19.00
2017-06-14T00:24:53.560Z,19.20
2017-06-14T00:27:25.324Z,19.30
2017-06-14T00:29:55.313Z,19.20
2017-06-14T00:32:26.991Z,19.20
2017-06-14T00:34:53.319Z,19.10
2017-06-14T00:37:20.426Z,19.10
2017-06-14T00:39:49.832Z,19.00
2017-06-14T00:42:19.210Z,19.00
2017-06-14T00:44:46.315Z,19.00
2017-06-14T00:47:17.726Z,19.10
2017-06-14T00:49:48.856Z,19.00
2017-06-14T00:52:21.520Z,18.90
2017-06-14T01:04:57.798Z,18.30
2017-06-14T01:07:34.588Z,18.60
2017-06-14T01:10:02.404Z,18.60
2017-06-14T01:15:00.419Z,18.40
2017-06-14T01:19:59.743Z,18.60
2017-06-14T01:22:25.946Z,18.30
2017-06-14T01:24:54.258Z,18.40
2017-06-14T01:27:21.672Z,18.60
2017-06-14T01:32:22.445Z,18.40
2017-06-14T01:34:50.181Z,18.40
2017-06-14T01:37:16.823Z,18.40
2017-06-14T01:39:45.951Z,18.40
2017-06-14T01:42:12.860Z,18.00
2017-06-14T01:44:39.395Z,18.50
2017-06-14T01:47:06.047Z,18.30
2017-06-14T01:49:33.748Z,18.30
2017-06-14T01:57:14.418Z,18.20
2017-06-14T02:04:56.203Z,18.10
2017-06-14T02:07:23.607Z,18.00
2017-06-14T02:12:26.128Z,17.80
2017-06-14T02:14:54.228Z,17.70
2017-06-14T02:17:21.931Z,17.60
2017-06-14T02:19:50.204Z,17.90
2017-06-14T02:22:17.461Z,17.90
2017-06-14T02:24:44.773Z,17.70
2017-06-14T02:27:12.148Z,17.60
2017-06-14T02:29:38.392Z,17.60
2017-06-14T02:32:04.832Z,17.50
2017-06-14T02:34:33.817Z,17.60
2017-06-14T02:37:05.879Z,17.50
2017-06-14T02:39:39.328Z,17.60
2017-06-14T02:42:05.980Z,17.60
2017-06-14T02:44:35.058Z,17.60
2017-06-14T02:47:02.669Z,17.20
2017-06-14T02:49:31.666Z,17.70
2017-06-14T02:51:58.181Z,17.80
2017-06-14T02:54:25.239Z,17.50
2017-06-14T02:56:52.424Z,17.40
2017-06-14T02:59:19.541Z,17.30
2017-06-14T03:01:47.820Z,17.30
2017-06-14T03:04:17.444Z,17.20
2017-06-14T03:06:44.639Z,17.10
2017-06-14T03:09:12.555Z,17.20
2017-06-14T03:15:00.671Z,17.00
2017-06-14T03:17:27.810Z,17.20
2017-06-14T03:19:56.234Z,17.00
2017-06-14T03:22:24.983Z,17.10
2017-06-14T03:25:00.077Z,17.00
2017-06-14T03:27:31.776Z,17.10
2017-06-14T03:29:59.738Z,17.00
2017-06-14T03:32:29.286Z,17.00
2017-06-14T03:34:59.055Z,17.10
2017-06-14T03:37:25.462Z,17.30
2017-06-14T03:39:52.786Z,16.80
2017-06-14T03:44:53.328Z,17.10
2017-06-14T03:47:20.502Z,17.10
2017-06-14T03:49:48.499Z,17.00
2017-06-14T03:54:50.099Z,16.70
2017-06-14T03:57:18.771Z,17.10
2017-06-14T04:02:18.134Z,17.20
2017-06-14T04:04:52.508Z,17.20
2017-06-14T04:18:34.713Z,17.10
2017-06-14T04:24:01.924Z,17.20
2017-06-14T04:32:17.137Z,17.20
2017-06-14T04:46:14.843Z,17.20
2017-06-14T04:48:41.880Z,17.30
2017-06-14T04:51:09.108Z,17.50
2017-06-14T04:53:40.503Z,17.00
2017-06-14T04:56:16.162Z,17.40
2017-06-14T04:58:49.150Z,17.50
2017-06-14T05:09:38.777Z,17.70
2017-06-14T05:12:08.909Z,17.70
2017-06-14T05:14:41.004Z,18.00
2017-06-14T05:17:11.494Z,17.80
2017-06-14T05:22:11.457Z,17.70
2017-06-14T05:24:39.567Z,17.60
2017-06-14T05:27:07.018Z,17.70
2017-06-14T05:29:34.425Z,17.70
2017-06-14T05:32:03.078Z,17.70
2017-06-14T05:37:34.401Z,17.80
2017-06-14T05:42:32.874Z,17.80
2017-06-14T05:47:32.697Z,17.80
2017-06-14T05:50:05.767Z,17.80
2017-06-14T05:55:22.174Z,17.80
2017-06-14T06:08:54.862Z,17.80
2017-06-14T06:11:32.092Z,18.10
2017-06-14T06:30:10.120Z,18.50
2017-06-14T06:43:37.651Z,18.90
2017-06-14T06:46:04.683Z,19.00
2017-06-14T06:48:35.013Z,19.00
2017-06-14T06:51:05.450Z,19.10
2017-06-14T06:53:33.297Z,19.20
2017-06-14T06:56:01.984Z,19.00
2017-06-14T06:58:33.029Z,19.30
2017-06-14T07:01:04.263Z,19.40
2017-06-14T07:03:32.072Z,19.40
2017-06-14T07:11:00.025Z,19.60
2017-06-14T07:13:26.938Z,19.60
2017-06-14T07:18:30.681Z,19.50
2017-06-14T07:21:01.711Z,19.60
2017-06-14T07:26:04.584Z,19.60
2017-06-14T07:36:05.100Z,19.90
2017-06-14T07:38:36.375Z,20.00
2017-06-14T07:41:04.105Z,20.30
2017-06-14T07:43:31.109Z,20.00
2017-06-14T07:46:00.215Z,20.40
2017-06-14T07:48:26.665Z,20.50
2017-06-14T07:50:53.373Z,20.40
2017-06-14T07:53:23.125Z,20.60
2017-06-14T07:55:49.463Z,20.60
2017-06-14T07:58:18.657Z,20.70
2017-06-14T08:00:47.045Z,20.80
2017-06-14T08:03:14.743Z,20.80
2017-06-14T08:05:42.559Z,20.80
2017-06-14T08:08:10.630Z,20.80
2017-06-14T08:10:39.659Z,21.00
2017-06-14T08:13:08.347Z,20.70
2017-06-14T08:15:34.848Z,21.00
2017-06-14T08:20:35.193Z,21.10
2017-06-14T08:23:03.277Z,21.20
2017-06-14T08:28:02.737Z,21.40
2017-06-14T08:30:29.425Z,21.50
2017-06-14T08:35:28.437Z,21.60
2017-06-14T08:37:55.774Z,21.70
2017-06-14T08:40:26.127Z,21.70
2017-06-14T08:42:53.771Z,21.60
2017-06-14T08:45:23.062Z,21.90
2017-06-14T08:47:53.031Z,21.60
2017-06-14T08:50:20.233Z,21.30
2017-06-14T08:52:48.927Z,21.90
2017-06-14T08:55:18.318Z,21.80
2017-06-14T08:57:50.439Z,22.00
2017-06-14T09:00:20.195Z,21.90
2017-06-14T09:02:50.386Z,22.00
2017-06-14T09:05:17.631Z,22.10
2017-06-14T09:07:45.018Z,22.40
2017-06-14T09:17:51.504Z,22.10
2017-06-14T09:20:20.934Z,22.10
2017-06-14T09:22:50.976Z,22.20
2017-06-14T09:30:23.158Z,22.50
2017-06-14T09:32:51.145Z,22.40
2017-06-14T09:35:18.764Z,22.70
2017-06-14T09:37:49.141Z,22.80
2017-06-14T09:42:48.876Z,22.70
2017-06-14T09:47:47.825Z,23.00
2017-06-14T09:50:15.889Z,23.00
2017-06-14T09:52:42.335Z,23.10
2017-06-14T09:55:08.770Z,23.20
2017-06-14T09:57:36.162Z,23.40
2017-06-14T10:00:03.276Z,23.40
2017-06-14T10:02:30.136Z,23.50
2017-06-14T10:04:57.523Z,23.60
2017-06-14T10:07:25.227Z,23.70
2017-06-14T10:09:52.371Z,23.90
2017-06-14T10:12:18.605Z,24.00
2017-06-14T10:14:45.637Z,24.20
2017-06-14T10:17:13.373Z,24.10
2017-06-14T10:19:42.011Z,24.10
2017-06-14T10:22:09.868Z,24.20
2017-06-14T10:24:40.493Z,24.30
2017-06-14T10:27:07.644Z,24.40
2017-06-14T10:29:35.109Z,24.60
2017-06-14T10:32:03.013Z,24.70
2017-06-14T10:34:31.087Z,24.80
2017-06-14T10:36:58.306Z,24.80
2017-06-14T10:39:34.273Z,24.80
2017-06-14T10:44:42.487Z,25.00
2017-06-14T11:03:31.290Z,25.10
2017-06-14T11:08:35.834Z,25.00
2017-06-14T11:31:29.130Z,26.10
2017-06-14T11:36:27.355Z,26.60
2017-06-14T11:41:33.843Z,28.20
2017-06-14T11:44:03.929Z,29.50
2017-06-14T11:55:21.375Z,32.70
2017-06-14T12:00:24.328Z,32.70
2017-06-14T12:02:54.351Z,33.30
2017-06-14T12:05:24.963Z,33.40
2017-06-14T12:10:35.545Z,33.80
2017-06-14T12:13:04.798Z,33.80
2017-06-14T12:15:35.784Z,34.30
2017-06-14T12:18:08.458Z,34.50
2017-06-14T12:20:36.717Z,34.60
2017-06-14T12:23:07.821Z,34.50
2017-06-14T12:25:38.725Z,34.80
2017-06-14T12:28:18.679Z,35.10
2017-06-14T12:30:48.043Z,35.20
2017-06-14T12:33:26.265Z,35.40
2017-06-14T12:38:48.247Z,35.90
2017-06-14T12:41:14.559Z,35.50
2017-06-14T12:46:15.990Z,35.00
2017-06-14T13:06:46.513Z,35.40
2017-06-14T13:11:48.440Z,35.80
2017-06-14T13:34:47.915Z,37.70
2017-06-14T13:50:08.749Z,37.80
2017-06-14T13:55:13.099Z,38.10
2017-06-14T14:00:25.974Z,38.70
2017-06-14T14:03:00.587Z,38.70
2017-06-14T14:05:33.253Z,39.10
2017-06-14T14:10:51.637Z,39.20
2017-06-14T14:13:24.319Z,39.30
2017-06-14T14:29:57.291Z,38.60
2017-06-14T14:32:29.850Z,38.90
2017-06-14T14:38:13.099Z,38.50
2017-06-14T15:05:09.573Z,37.70
2017-06-14T15:24:34.892Z,38.50
2017-06-14T16:12:29.446Z,39.40
2017-06-14T16:15:06.739Z,38.90
2017-06-14T16:20:32.973Z,38.60
2017-06-14T16:34:08.815Z,38.00
2017-06-14T16:39:24.270Z,37.40
2017-06-14T16:47:17.284Z,36.70
2017-06-14T16:49:44.036Z,36.50
2017-06-14T16:52:11.053Z,37.00
2017-06-14T16:54:38.667Z,37.30
2017-06-14T17:00:04.132Z,37.30
2017-06-14T17:02:30.311Z,37.70
2017-06-14T17:05:02.269Z,37.40
2017-06-14T17:07:29.511Z,37.10
2017-06-14T17:23:22.859Z,37.30
2017-06-14T17:25:56.321Z,37.40
2017-06-14T17:28:22.356Z,37.10
2017-06-14T17:30:49.671Z,37.00
2017-06-14T17:33:16.762Z,37.10
2017-06-14T17:35:48.925Z,36.90
2017-06-14T17:38:17.417Z,36.70
2017-06-14T17:40:48.916Z,36.60
2017-06-14T17:45:49.452Z,36.60
2017-06-14T17:48:35.604Z,36.50
2017-06-14T17:53:48.732Z,36.30
2017-06-14T17:56:18.606Z,36.00
2017-06-14T17:58:45.815Z,35.60
2017-06-14T18:09:26.406Z,34.40
2017-06-14T18:11:56.859Z,34.40
2017-06-14T18:14:23.506Z,34.20
2017-06-14T18:16:49.704Z,34.00
2017-06-14T18:19:19.053Z,33.60
2017-06-14T18:21:45.033Z,33.40
2017-06-14T18:24:12.000Z,33.20
2017-06-14T18:26:38.745Z,33.30
2017-06-14T18:29:04.697Z,33.30
2017-06-14T18:31:31.377Z,33.20
2017-06-14T18:33:57.987Z,33.20
2017-06-14T18:36:25.508Z,33.10
2017-06-14T18:41:26.234Z,32.70
2017-06-14T18:43:53.186Z,32.60
2017-06-14T18:46:19.411Z,32.50
2017-06-14T18:48:45.422Z,32.30
2017-06-14T18:51:11.527Z,32.10
2017-06-14T18:53:37.476Z,31.80
2017-06-14T18:56:04.005Z,31.60
2017-06-14T18:58:30.550Z,31.30
2017-06-14T19:00:58.047Z,31.20
2017-06-14T19:03:25.964Z,31.00
2017-06-14T19:05:52.915Z,30.70
2017-06-14T19:08:19.553Z,30.60
2017-06-14T19:10:46.604Z,30.00
2017-06-14T19:13:14.410Z,29.30
2017-06-14T19:15:42.875Z,29.20
2017-06-14T19:18:09.892Z,28.70
2017-06-14T19:20:37.246Z,28.40
2017-06-14T19:23:13.393Z,28.30
2017-06-14T19:25:47.174Z,27.70
2017-06-14T19:28:16.204Z,27.40
2017-06-14T19:30:43.946Z,27.30
2017-06-14T19:33:10.829Z,27.00
2017-06-14T19:35:39.017Z,26.90
2017-06-14T19:38:08.383Z,26.60
2017-06-14T19:43:13.773Z,26.30
2017-06-14T19:45:43.855Z,26.10
2017-06-14T19:48:11.005Z,26.20
2017-06-14T19:50:39.706Z,26.00
2017-06-14T19:53:06.476Z,25.90
2017-06-14T19:55:32.753Z,26.00
2017-06-14T19:58:00.267Z,25.80
2017-06-14T20:00:33.145Z,25.40
2017-06-14T20:03:00.499Z,25.50
2017-06-14T20:05:31.709Z,25.40
2017-06-14T20:08:01.831Z,25.40
2017-06-14T20:10:29.631Z,25.30
2017-06-14T20:12:55.782Z,25.20
2017-06-14T20:15:23.669Z,25.30
2017-06-14T20:17:50.964Z,25.10
2017-06-14T20:23:01.800Z,25.00
2017-06-14T20:25:32.022Z,24.90
2017-06-14T20:30:38.457Z,24.80
2017-06-14T20:33:14.602Z,24.70
2017-06-14T20:35:43.084Z,24.60
2017-06-14T20:38:11.034Z,24.60
2017-06-14T20:40:42.091Z,24.50
2017-06-14T20:43:08.699Z,24.50
2017-06-14T20:45:39.584Z,24.40
2017-06-14T20:48:06.955Z,24.40
2017-06-14T20:50:35.429Z,24.40
2017-06-14T20:53:09.625Z,24.30
2017-06-14T20:55:36.887Z,24.20
2017-06-14T20:58:05.326Z,24.40
2017-06-14T21:00:33.169Z,24.30
2017-06-14T21:03:01.627Z,24.00
2017-06-14T21:08:16.052Z,23.80
2017-06-14T21:10:50.004Z,24.00
2017-06-14T21:13:16.973Z,23.90
2017-06-14T21:15:45.760Z,24.10
2017-06-14T21:18:14.048Z,24.00
2017-06-14T21:20:45.094Z,23.90
2017-06-14T21:23:13.295Z,23.90
2017-06-14T21:25:39.567Z,23.80
2017-06-14T21:28:05.710Z,23.80
2017-06-14T21:30:34.492Z,23.80
2017-06-14T21:33:00.530Z,23.70
2017-06-14T21:35:26.899Z,23.80
2017-06-14T21:37:57.898Z,23.70
2017-06-14T21:40:26.360Z,23.70
2017-06-14T21:42:53.853Z,23.70
2017-06-14T21:45:21.755Z,23.60
2017-06-14T21:47:51.696Z,23.60
2017-06-14T21:50:20.920Z,23.60
2017-06-14T21:52:49.178Z,23.50
2017-06-14T21:55:16.942Z,23.50
2017-06-14T21:57:44.740Z,23.40
2017-06-14T22:00:11.746Z,23.40
2017-06-14T22:02:37.893Z,23.30
2017-06-14T22:05:05.021Z,23.20
2017-06-14T22:07:31.038Z,23.10
2017-06-14T22:09:57.808Z,23.10
2017-06-14T22:12:25.040Z,23.00
2017-06-14T22:14:52.636Z,23.00
2017-06-14T22:17:22.003Z,22.90
2017-06-14T22:19:48.275Z,22.90
2017-06-14T22:22:14.311Z,22.90
2017-06-14T22:24:40.698Z,22.90
2017-06-14T22:27:07.165Z,22.80
2017-06-14T22:29:34.474Z,22.80
2017-06-14T22:32:00.569Z,22.70
2017-06-14T22:34:27.189Z,22.60
2017-06-14T22:36:54.213Z,22.70
2017-06-14T22:39:21.533Z,22.60
2017-06-14T22:41:51.143Z,22.50
2017-06-14T22:44:18.358Z,22.50
2017-06-14T22:46:44.907Z,22.50
2017-06-14T22:49:10.952Z,22.50
2017-06-14T22:51:38.438Z,22.40
2017-06-14T22:54:04.955Z,22.30
2017-06-14T22:56:31.887Z,22.30
2017-06-14T22:58:59.293Z,22.30
2017-06-14T23:01:27.213Z,22.20
2017-06-14T23:03:59.539Z,22.20
2017-06-14T23:06:26.513Z,22.10
2017-06-14T23:08:52.687Z,22.00
2017-06-14T23:11:20.611Z,22.00
2017-06-14T23:13:47.125Z,21.90
2017-06-14T23:16:14.130Z,21.90
2017-06-14T23:18:42.880Z,21.80
2017-06-14T23:21:11.138Z,21.60
2017-06-14T23:23:37.974Z,21.80
2017-06-14T23:26:04.012Z,21.80
2017-06-14T23:28:36.812Z,21.70
2017-06-14T23:31:03.460Z,21.70
2017-06-14T23:33:30.264Z,21.70
2017-06-14T23:35:58.804Z,21.60
2017-06-14T23:38:25.368Z,21.60
2017-06-14T23:40:52.343Z,21.60
2017-06-14T23:43:18.708Z,21.50
2017-06-14T23:45:44.723Z,21.50
2017-06-14T23:48:11.436Z,21.40
2017-06-14T23:50:38.463Z,21.20
2017-06-14T23:53:04.513Z,21.30
2017-06-14T23:55:31.933Z,21.40
2017-06-14T23:57:58.411Z,21.10
